sensor_id;sensor_type;location;lat;lon;timestamp;P1;durP1;ratioP1;P2;durP2;ratioP2
7605;SDS011;3844;53.360;9.738;2023-02-27T00:01:48;5.97;;;2.75;;
7605;SDS011;3844;53.360;9.738;2023-02-27T00:03:48;6.90;;;3.13;;
7605;SDS011;3844;53.360;9.738;2023-02-27T00:05:49;7.55;;;2.85;;
7605;SDS011;3844;53.360;9.738;2023-02-27T00:07:50;8.10;;;2.80;;
7605;SDS011;3844;53.360;9.738;2023-02-27T00:09:51;7.15;;;2.70;;
7605;SDS011;3844;53.360;9.738;2023-02-27T00:11:52;7.82;;;2.83;;
7605;SDS011;3844;53.360;9.738;2023-02-27T00:13:53;7.38;;;3.00;;
7605;SDS011;3844;53.360;9.738;2023-02-27T00:15:53;8.43;;;3.10;;
7605;SDS011;3844;53.360;9.738;2023-02-27T00:17:55;7.47;;;2.97;;
7605;SDS011;3844;53.360;9.738;2023-02-27T00:19:56;8.82;;;3.30;;
7605;SDS011;3844;53.360;9.738;2023-02-27T00:21:56;7.57;;;2.70;;
7605;SDS011;3844;53.360;9.738;2023-02-27T00:23:57;7.05;;;3.10;;
7605;SDS011;3844;53.360;9.738;2023-02-27T00:25:58;8.40;;;3.17;;
7605;SDS011;3844;53.360;9.738;2023-02-27T00:28:00;6.75;;;2.90;;
7605;SDS011;3844;53.360;9.738;2023-02-27T00:30:01;9.63;;;3.10;;
7605;SDS011;3844;53.360;9.738;2023-02-27T00:32:06;9.25;;;3.40;;
7605;SDS011;3844;53.360;9.738;2023-02-27T00:34:07;10.35;;;3.13;;
7605;SDS011;3844;53.360;9.738;2023-02-27T00:36:07;7.10;;;2.85;;
7605;SDS011;3844;53.360;9.738;2023-02-27T00:38:08;7.63;;;2.75;;
7605;SDS011;3844;53.360;9.738;2023-02-27T00:40:09;6.00;;;2.88;;
7605;SDS011;3844;53.360;9.738;2023-02-27T00:42:11;6.80;;;2.75;;
7605;SDS011;3844;53.360;9.738;2023-02-27T00:44:12;7.18;;;2.80;;
7605;SDS011;3844;53.360;9.738;2023-02-27T00:46:13;7.28;;;3.00;;
7605;SDS011;3844;53.360;9.738;2023-02-27T00:48:14;8.35;;;3.20;;
7605;SDS011;3844;53.360;9.738;2023-02-27T00:50:15;7.65;;;3.17;;
7605;SDS011;3844;53.360;9.738;2023-02-27T00:52:16;6.85;;;2.90;;
7605;SDS011;3844;53.360;9.738;2023-02-27T00:54:16;7.88;;;3.10;;
7605;SDS011;3844;53.360;9.738;2023-02-27T00:56:17;7.43;;;2.88;;
7605;SDS011;3844;53.360;9.738;2023-02-27T00:58:18;8.05;;;3.00;;
7605;SDS011;3844;53.360;9.738;2023-02-27T01:00:18;6.68;;;3.17;;
7605;SDS011;3844;53.360;9.738;2023-02-27T01:02:19;8.23;;;2.90;;
7605;SDS011;3844;53.360;9.738;2023-02-27T01:04:20;7.03;;;2.88;;
7605;SDS011;3844;53.360;9.738;2023-02-27T01:06:21;5.65;;;2.58;;
7605;SDS011;3844;53.360;9.738;2023-02-27T01:08:21;7.45;;;2.70;;
7605;SDS011;3844;53.360;9.738;2023-02-27T01:10:22;8.18;;;3.10;;
7605;SDS011;3844;53.360;9.738;2023-02-27T01:12:23;7.47;;;2.95;;
7605;SDS011;3844;53.360;9.738;2023-02-27T01:14:24;8.93;;;2.92;;
7605;SDS011;3844;53.360;9.738;2023-02-27T01:16:25;7.03;;;2.90;;
7605;SDS011;3844;53.360;9.738;2023-02-27T01:18:25;6.75;;;2.97;;
7605;SDS011;3844;53.360;9.738;2023-02-27T01:20:26;7.75;;;3.10;;
7605;SDS011;3844;53.360;9.738;2023-02-27T01:22:27;6.88;;;2.95;;
7605;SDS011;3844;53.360;9.738;2023-02-27T01:24:28;7.13;;;2.92;;
7605;SDS011;3844;53.360;9.738;2023-02-27T01:26:28;8.77;;;3.22;;
7605;SDS011;3844;53.360;9.738;2023-02-27T01:28:29;6.57;;;2.60;;
7605;SDS011;3844;53.360;9.738;2023-02-27T01:30:30;8.07;;;2.90;;
7605;SDS011;3844;53.360;9.738;2023-02-27T01:32:30;11.45;;;3.15;;
7605;SDS011;3844;53.360;9.738;2023-02-27T01:34:31;8.40;;;3.05;;
7605;SDS011;3844;53.360;9.738;2023-02-27T01:36:32;7.32;;;3.13;;
7605;SDS011;3844;53.360;9.738;2023-02-27T01:38:33;10.68;;;3.75;;
7605;SDS011;3844;53.360;9.738;2023-02-27T01:40:34;8.57;;;3.55;;
7605;SDS011;3844;53.360;9.738;2023-02-27T01:42:36;7.55;;;3.30;;
7605;SDS011;3844;53.360;9.738;2023-02-27T01:45:00;9.30;;;3.28;;
7605;SDS011;3844;53.360;9.738;2023-02-27T01:47:07;9.38;;;3.00;;
7605;SDS011;3844;53.360;9.738;2023-02-27T01:49:10;9.65;;;3.20;;
7605;SDS011;3844;53.360;9.738;2023-02-27T01:51:23;6.90;;;3.10;;
7605;SDS011;3844;53.360;9.738;2023-02-27T01:53:25;7.75;;;3.03;;
7605;SDS011;3844;53.360;9.738;2023-02-27T01:55:28;7.20;;;2.92;;
7605;SDS011;3844;53.360;9.738;2023-02-27T01:57:31;6.63;;;2.85;;
7605;SDS011;3844;53.360;9.738;2023-02-27T01:59:35;8.82;;;2.80;;
7605;SDS011;3844;53.360;9.738;2023-02-27T02:01:38;8.75;;;3.00;;
7605;SDS011;3844;53.360;9.738;2023-02-27T02:03:41;6.93;;;2.92;;
7605;SDS011;3844;53.360;9.738;2023-02-27T02:05:52;7.32;;;3.08;;
7605;SDS011;3844;53.360;9.738;2023-02-27T02:07:55;8.90;;;3.10;;
7605;SDS011;3844;53.360;9.738;2023-02-27T02:09:57;6.40;;;3.28;;
7605;SDS011;3844;53.360;9.738;2023-02-27T02:11:59;6.22;;;2.90;;
7605;SDS011;3844;53.360;9.738;2023-02-27T02:14:00;7.28;;;3.03;;
7605;SDS011;3844;53.360;9.738;2023-02-27T02:18:56;9.02;;;3.00;;
7605;SDS011;3844;53.360;9.738;2023-02-27T02:24:02;6.85;;;2.97;;
7605;SDS011;3844;53.360;9.738;2023-02-27T02:39:58;8.02;;;2.88;;
7605;SDS011;3844;53.360;9.738;2023-02-27T02:42:15;9.93;;;3.17;;
7605;SDS011;3844;53.360;9.738;2023-02-27T02:47:03;6.93;;;2.72;;
7605;SDS011;3844;53.360;9.738;2023-02-27T02:51:21;7.47;;;2.80;;
7605;SDS011;3844;53.360;9.738;2023-02-27T02:55:36;6.90;;;2.63;;
7605;SDS011;3844;53.360;9.738;2023-02-27T02:57:47;6.45;;;2.90;;
7605;SDS011;3844;53.360;9.738;2023-02-27T03:02:15;6.78;;;2.42;;
7605;SDS011;3844;53.360;9.738;2023-02-27T03:04:27;6.57;;;2.72;;
7605;SDS011;3844;53.360;9.738;2023-02-27T03:06:37;7.03;;;2.92;;
7605;SDS011;3844;53.360;9.738;2023-02-27T03:08:47;6.78;;;2.40;;
7605;SDS011;3844;53.360;9.738;2023-02-27T03:10:56;8.48;;;3.05;;
7605;SDS011;3844;53.360;9.738;2023-02-27T03:15:05;7.35;;;2.78;;
7605;SDS011;3844;53.360;9.738;2023-02-27T03:17:15;6.72;;;3.00;;
7605;SDS011;3844;53.360;9.738;2023-02-27T03:24:11;7.78;;;3.22;;
7605;SDS011;3844;53.360;9.738;2023-02-27T03:26:16;10.10;;;3.30;;
7605;SDS011;3844;53.360;9.738;2023-02-27T03:28:24;6.35;;;2.97;;
7605;SDS011;3844;53.360;9.738;2023-02-27T03:30:31;7.13;;;3.30;;
7605;SDS011;3844;53.360;9.738;2023-02-27T03:34:55;8.07;;;3.05;;
7605;SDS011;3844;53.360;9.738;2023-02-27T03:37:00;7.75;;;3.08;;
7605;SDS011;3844;53.360;9.738;2023-02-27T03:41:33;6.60;;;2.78;;
7605;SDS011;3844;53.360;9.738;2023-02-27T03:43:47;9.18;;;3.20;;
7605;SDS011;3844;53.360;9.738;2023-02-27T03:46:09;7.43;;;2.72;;
7605;SDS011;3844;53.360;9.738;2023-02-27T03:48:21;8.32;;;2.80;;
7605;SDS011;3844;53.360;9.738;2023-02-27T03:50:22;10.30;;;3.05;;
7605;SDS011;3844;53.360;9.738;2023-02-27T03:52:23;6.10;;;2.95;;
7605;SDS011;3844;53.360;9.738;2023-02-27T03:54:26;7.90;;;2.85;;
7605;SDS011;3844;53.360;9.738;2023-02-27T03:56:39;7.38;;;2.80;;
7605;SDS011;3844;53.360;9.738;2023-02-27T03:58:44;7.28;;;2.70;;
7605;SDS011;3844;53.360;9.738;2023-02-27T04:00:45;6.47;;;2.97;;
7605;SDS011;3844;53.360;9.738;2023-02-27T04:02:46;6.47;;;2.90;;
7605;SDS011;3844;53.360;9.738;2023-02-27T04:04:52;7.13;;;2.80;;
7605;SDS011;3844;53.360;9.738;2023-02-27T04:06:57;6.30;;;2.63;;
7605;SDS011;3844;53.360;9.738;2023-02-27T04:23:41;6.55;;;2.90;;
7605;SDS011;3844;53.360;9.738;2023-02-27T04:28:43;11.20;;;3.00;;
7605;SDS011;3844;53.360;9.738;2023-02-27T04:31:31;8.18;;;2.65;;
7605;SDS011;3844;53.360;9.738;2023-02-27T04:33:43;7.68;;;2.92;;
7605;SDS011;3844;53.360;9.738;2023-02-27T04:37:55;5.28;;;2.63;;
7605;SDS011;3844;53.360;9.738;2023-02-27T04:40:09;5.95;;;2.60;;
7605;SDS011;3844;53.360;9.738;2023-02-27T04:42:15;6.05;;;2.83;;
7605;SDS011;3844;53.360;9.738;2023-02-27T04:44:24;9.60;;;3.22;;
7605;SDS011;3844;53.360;9.738;2023-02-27T04:46:28;8.23;;;3.00;;
7605;SDS011;3844;53.360;9.738;2023-02-27T04:48:33;8.00;;;3.20;;
7605;SDS011;3844;53.360;9.738;2023-02-27T04:50:44;8.45;;;3.13;;
7605;SDS011;3844;53.360;9.738;2023-02-27T04:52:50;7.95;;;3.25;;
7605;SDS011;3844;53.360;9.738;2023-02-27T04:57:05;7.70;;;3.45;;
7605;SDS011;3844;53.360;9.738;2023-02-27T04:59:12;8.38;;;2.97;;
7605;SDS011;3844;53.360;9.738;2023-02-27T05:01:19;11.05;;;2.90;;
7605;SDS011;3844;53.360;9.738;2023-02-27T05:03:26;8.25;;;2.75;;
7605;SDS011;3844;53.360;9.738;2023-02-27T05:05:32;7.25;;;3.03;;
7605;SDS011;3844;53.360;9.738;2023-02-27T05:07:37;7.72;;;3.00;;
7605;SDS011;3844;53.360;9.738;2023-02-27T05:11:59;7.72;;;3.38;;
7605;SDS011;3844;53.360;9.738;2023-02-27T05:14:10;9.27;;;3.33;;
7605;SDS011;3844;53.360;9.738;2023-02-27T05:16:15;6.95;;;3.20;;
7605;SDS011;3844;53.360;9.738;2023-02-27T05:18:25;7.47;;;3.08;;
7605;SDS011;3844;53.360;9.738;2023-02-27T05:20:29;8.38;;;2.67;;
7605;SDS011;3844;53.360;9.738;2023-02-27T05:27:13;7.75;;;2.97;;
7605;SDS011;3844;53.360;9.738;2023-02-27T05:29:30;7.43;;;3.20;;
7605;SDS011;3844;53.360;9.738;2023-02-27T05:31:53;6.60;;;2.47;;
7605;SDS011;3844;53.360;9.738;2023-02-27T05:36:27;10.13;;;3.70;;
7605;SDS011;3844;53.360;9.738;2023-02-27T05:38:36;9.02;;;3.65;;
7605;SDS011;3844;53.360;9.738;2023-02-27T05:40:40;10.30;;;3.60;;
7605;SDS011;3844;53.360;9.738;2023-02-27T05:43:05;10.23;;;3.70;;
7605;SDS011;3844;53.360;9.738;2023-02-27T05:45:23;7.75;;;3.60;;
7605;SDS011;3844;53.360;9.738;2023-02-27T05:47:28;10.65;;;3.78;;
7605;SDS011;3844;53.360;9.738;2023-02-27T05:49:38;7.93;;;3.30;;
7605;SDS011;3844;53.360;9.738;2023-02-27T05:51:45;8.43;;;3.78;;
7605;SDS011;3844;53.360;9.738;2023-02-27T05:53:52;7.25;;;3.60;;
7605;SDS011;3844;53.360;9.738;2023-02-27T05:55:59;8.98;;;3.78;;
7605;SDS011;3844;53.360;9.738;2023-02-27T06:00:31;10.25;;;4.00;;
7605;SDS011;3844;53.360;9.738;2023-02-27T06:02:39;8.45;;;3.40;;
7605;SDS011;3844;53.360;9.738;2023-02-27T06:04:41;9.38;;;3.55;;
7605;SDS011;3844;53.360;9.738;2023-02-27T06:06:42;11.73;;;3.75;;
7605;SDS011;3844;53.360;9.738;2023-02-27T06:08:44;10.07;;;3.92;;
7605;SDS011;3844;53.360;9.738;2023-02-27T06:10:45;11.50;;;3.90;;
7605;SDS011;3844;53.360;9.738;2023-02-27T06:12:46;9.80;;;3.78;;
7605;SDS011;3844;53.360;9.738;2023-02-27T06:14:46;10.27;;;4.40;;
7605;SDS011;3844;53.360;9.738;2023-02-27T06:16:47;10.32;;;4.15;;
7605;SDS011;3844;53.360;9.738;2023-02-27T06:18:48;10.18;;;4.10;;
7605;SDS011;3844;53.360;9.738;2023-02-27T06:20:48;9.25;;;3.88;;
7605;SDS011;3844;53.360;9.738;2023-02-27T06:22:49;10.82;;;4.15;;
7605;SDS011;3844;53.360;9.738;2023-02-27T06:24:50;9.30;;;4.00;;
7605;SDS011;3844;53.360;9.738;2023-02-27T06:26:51;10.68;;;4.30;;
7605;SDS011;3844;53.360;9.738;2023-02-27T06:28:52;11.25;;;4.40;;
7605;SDS011;3844;53.360;9.738;2023-02-27T06:30:53;9.10;;;4.10;;
7605;SDS011;3844;53.360;9.738;2023-02-27T06:32:56;11.05;;;4.28;;
7605;SDS011;3844;53.360;9.738;2023-02-27T06:34:57;13.93;;;4.75;;
7605;SDS011;3844;53.360;9.738;2023-02-27T06:36:57;11.13;;;4.68;;
7605;SDS011;3844;53.360;9.738;2023-02-27T06:38:58;9.73;;;4.93;;
7605;SDS011;3844;53.360;9.738;2023-02-27T06:40:59;11.05;;;4.93;;
7605;SDS011;3844;53.360;9.738;2023-02-27T06:42:59;12.65;;;4.80;;
7605;SDS011;3844;53.360;9.738;2023-02-27T06:45:00;11.02;;;4.82;;
7605;SDS011;3844;53.360;9.738;2023-02-27T06:47:01;11.95;;;5.03;;
7605;SDS011;3844;53.360;9.738;2023-02-27T06:49:02;10.25;;;4.40;;
7605;SDS011;3844;53.360;9.738;2023-02-27T06:51:03;8.77;;;4.10;;
7605;SDS011;3844;53.360;9.738;2023-02-27T06:53:04;11.77;;;4.40;;
7605;SDS011;3844;53.360;9.738;2023-02-27T06:55:06;9.98;;;4.38;;
7605;SDS011;3844;53.360;9.738;2023-02-27T06:57:07;11.40;;;4.32;;
7605;SDS011;3844;53.360;9.738;2023-02-27T06:59:08;10.15;;;4.38;;
7605;SDS011;3844;53.360;9.738;2023-02-27T07:01:08;12.35;;;4.90;;
7605;SDS011;3844;53.360;9.738;2023-02-27T07:03:11;11.02;;;4.53;;
7605;SDS011;3844;53.360;9.738;2023-02-27T07:05:12;9.50;;;3.78;;
7605;SDS011;3844;53.360;9.738;2023-02-27T07:07:13;10.45;;;4.65;;
7605;SDS011;3844;53.360;9.738;2023-02-27T07:09:14;9.80;;;4.25;;
7605;SDS011;3844;53.360;9.738;2023-02-27T07:11:14;11.77;;;4.03;;
7605;SDS011;3844;53.360;9.738;2023-02-27T07:13:16;10.77;;;4.15;;
7605;SDS011;3844;53.360;9.738;2023-02-27T07:15:17;10.82;;;3.90;;
7605;SDS011;3844;53.360;9.738;2023-02-27T07:17:17;9.05;;;3.90;;
7605;SDS011;3844;53.360;9.738;2023-02-27T07:19:19;8.07;;;3.63;;
7605;SDS011;3844;53.360;9.738;2023-02-27T07:21:20;9.82;;;4.13;;
7605;SDS011;3844;53.360;9.738;2023-02-27T07:23:21;10.18;;;4.07;;
7605;SDS011;3844;53.360;9.738;2023-02-27T07:25:22;8.00;;;4.25;;
7605;SDS011;3844;53.360;9.738;2023-02-27T07:27:23;10.10;;;4.10;;
7605;SDS011;3844;53.360;9.738;2023-02-27T07:29:24;8.68;;;4.10;;
7605;SDS011;3844;53.360;9.738;2023-02-27T07:31:25;11.52;;;4.10;;
7605;SDS011;3844;53.360;9.738;2023-02-27T07:33:26;8.63;;;4.35;;
7605;SDS011;3844;53.360;9.738;2023-02-27T07:35:26;9.60;;;4.40;;
7605;SDS011;3844;53.360;9.738;2023-02-27T07:37:27;13.57;;;4.70;;
7605;SDS011;3844;53.360;9.738;2023-02-27T07:39:28;11.88;;;4.72;;
7605;SDS011;3844;53.360;9.738;2023-02-27T07:41:28;13.68;;;5.22;;
7605;SDS011;3844;53.360;9.738;2023-02-27T07:43:29;11.85;;;5.20;;
7605;SDS011;3844;53.360;9.738;2023-02-27T07:45:30;12.65;;;4.97;;
7605;SDS011;3844;53.360;9.738;2023-02-27T07:47:31;13.10;;;5.35;;
7605;SDS011;3844;53.360;9.738;2023-02-27T07:49:32;12.68;;;5.72;;
7605;SDS011;3844;53.360;9.738;2023-02-27T07:51:33;15.35;;;5.90;;
7605;SDS011;3844;53.360;9.738;2023-02-27T07:53:34;11.50;;;5.40;;
7605;SDS011;3844;53.360;9.738;2023-02-27T07:55:34;11.75;;;5.35;;
7605;SDS011;3844;53.360;9.738;2023-02-27T07:57:35;11.05;;;5.75;;
7605;SDS011;3844;53.360;9.738;2023-02-27T07:59:36;13.23;;;6.03;;
7605;SDS011;3844;53.360;9.738;2023-02-27T08:01:37;12.57;;;6.10;;
7605;SDS011;3844;53.360;9.738;2023-02-27T08:03:38;15.20;;;7.05;;
7605;SDS011;3844;53.360;9.738;2023-02-27T08:05:39;15.57;;;7.28;;
7605;SDS011;3844;53.360;9.738;2023-02-27T08:07:39;18.27;;;7.63;;
7605;SDS011;3844;53.360;9.738;2023-02-27T08:09:40;15.48;;;8.02;;
7605;SDS011;3844;53.360;9.738;2023-02-27T08:11:41;16.98;;;7.60;;
7605;SDS011;3844;53.360;9.738;2023-02-27T08:13:42;16.67;;;8.13;;
7605;SDS011;3844;53.360;9.738;2023-02-27T08:15:45;22.77;;;9.95;;
7605;SDS011;3844;53.360;9.738;2023-02-27T08:17:45;22.00;;;10.65;;
7605;SDS011;3844;53.360;9.738;2023-02-27T08:19:47;25.33;;;10.85;;
7605;SDS011;3844;53.360;9.738;2023-02-27T08:21:47;30.92;;;13.40;;
7605;SDS011;3844;53.360;9.738;2023-02-27T08:23:48;30.67;;;13.63;;
7605;SDS011;3844;53.360;9.738;2023-02-27T08:25:49;31.45;;;13.95;;
7605;SDS011;3844;53.360;9.738;2023-02-27T08:27:50;35.72;;;15.88;;
7605;SDS011;3844;53.360;9.738;2023-02-27T08:29:51;32.58;;;14.00;;
7605;SDS011;3844;53.360;9.738;2023-02-27T08:31:51;34.60;;;14.48;;
7605;SDS011;3844;53.360;9.738;2023-02-27T08:33:52;26.95;;;12.35;;
7605;SDS011;3844;53.360;9.738;2023-02-27T08:35:53;25.55;;;11.57;;
7605;SDS011;3844;53.360;9.738;2023-02-27T08:37:54;27.88;;;11.65;;
7605;SDS011;3844;53.360;9.738;2023-02-27T08:39:55;20.52;;;10.90;;
7605;SDS011;3844;53.360;9.738;2023-02-27T08:41:56;25.55;;;11.20;;
7605;SDS011;3844;53.360;9.738;2023-02-27T08:43:57;19.92;;;10.30;;
7605;SDS011;3844;53.360;9.738;2023-02-27T08:45:57;24.83;;;11.20;;
7605;SDS011;3844;53.360;9.738;2023-02-27T08:47:58;21.48;;;10.02;;
7605;SDS011;3844;53.360;9.738;2023-02-27T08:49:59;18.00;;;8.88;;
7605;SDS011;3844;53.360;9.738;2023-02-27T08:51:59;17.92;;;8.75;;
7605;SDS011;3844;53.360;9.738;2023-02-27T08:54:00;20.80;;;9.27;;
7605;SDS011;3844;53.360;9.738;2023-02-27T08:56:01;17.92;;;8.73;;
7605;SDS011;3844;53.360;9.738;2023-02-27T08:58:02;19.02;;;8.73;;
7605;SDS011;3844;53.360;9.738;2023-02-27T09:00:03;16.85;;;8.35;;
7605;SDS011;3844;53.360;9.738;2023-02-27T09:02:08;15.35;;;7.53;;
7605;SDS011;3844;53.360;9.738;2023-02-27T09:04:09;14.88;;;6.55;;
7605;SDS011;3844;53.360;9.738;2023-02-27T09:06:10;12.02;;;6.03;;
7605;SDS011;3844;53.360;9.738;2023-02-27T09:08:11;12.80;;;5.75;;
7605;SDS011;3844;53.360;9.738;2023-02-27T09:10:12;10.38;;;5.00;;
7605;SDS011;3844;53.360;9.738;2023-02-27T09:12:13;11.55;;;5.40;;
7605;SDS011;3844;53.360;9.738;2023-02-27T09:14:14;11.85;;;5.40;;
7605;SDS011;3844;53.360;9.738;2023-02-27T09:16:14;11.70;;;4.90;;
7605;SDS011;3844;53.360;9.738;2023-02-27T09:18:15;10.43;;;4.68;;
7605;SDS011;3844;53.360;9.738;2023-02-27T09:20:16;8.73;;;4.65;;
7605;SDS011;3844;53.360;9.738;2023-02-27T09:22:17;10.38;;;4.70;;
7605;SDS011;3844;53.360;9.738;2023-02-27T09:24:18;12.80;;;4.93;;
7605;SDS011;3844;53.360;9.738;2023-02-27T09:26:19;11.45;;;4.80;;
7605;SDS011;3844;53.360;9.738;2023-02-27T09:28:20;9.98;;;4.60;;
7605;SDS011;3844;53.360;9.738;2023-02-27T09:30:21;13.20;;;4.70;;
7605;SDS011;3844;53.360;9.738;2023-02-27T09:32:22;11.02;;;4.47;;
7605;SDS011;3844;53.360;9.738;2023-02-27T09:34:23;10.23;;;3.83;;
7605;SDS011;3844;53.360;9.738;2023-02-27T09:36:24;11.88;;;4.40;;
7605;SDS011;3844;53.360;9.738;2023-02-27T09:38:25;10.90;;;3.53;;
7605;SDS011;3844;53.360;9.738;2023-02-27T09:40:27;13.25;;;4.40;;
7605;SDS011;3844;53.360;9.738;2023-02-27T09:42:32;9.93;;;3.75;;
7605;SDS011;3844;53.360;9.738;2023-02-27T09:44:57;10.32;;;3.50;;
7605;SDS011;3844;53.360;9.738;2023-02-27T09:47:02;11.25;;;3.65;;
7605;SDS011;3844;53.360;9.738;2023-02-27T09:49:04;8.45;;;3.35;;
7605;SDS011;3844;53.360;9.738;2023-02-27T09:51:05;10.15;;;3.72;;
7605;SDS011;3844;53.360;9.738;2023-02-27T09:53:14;12.63;;;3.80;;
7605;SDS011;3844;53.360;9.738;2023-02-27T09:55:32;10.65;;;4.47;;
7605;SDS011;3844;53.360;9.738;2023-02-27T09:57:38;10.93;;;4.13;;
7605;SDS011;3844;53.360;9.738;2023-02-27T10:00:06;8.55;;;3.92;;
7605;SDS011;3844;53.360;9.738;2023-02-27T10:09:36;8.30;;;3.60;;
7605;SDS011;3844;53.360;9.738;2023-02-27T10:14:21;10.23;;;3.90;;
7605;SDS011;3844;53.360;9.738;2023-02-27T10:16:28;8.32;;;3.60;;
7605;SDS011;3844;53.360;9.738;2023-02-27T10:18:34;8.20;;;3.20;;
7605;SDS011;3844;53.360;9.738;2023-02-27T10:20:41;8.98;;;3.70;;
7605;SDS011;3844;53.360;9.738;2023-02-27T10:22:50;8.73;;;3.80;;
7605;SDS011;3844;53.360;9.738;2023-02-27T10:24:55;9.88;;;3.58;;
7605;SDS011;3844;53.360;9.738;2023-02-27T10:27:04;10.73;;;3.55;;
7605;SDS011;3844;53.360;9.738;2023-02-27T10:31:25;9.70;;;3.25;;
7605;SDS011;3844;53.360;9.738;2023-02-27T10:33:32;11.95;;;3.67;;
7605;SDS011;3844;53.360;9.738;2023-02-27T10:35:38;8.75;;;3.40;;
7605;SDS011;3844;53.360;9.738;2023-02-27T10:37:45;9.82;;;3.33;;
7605;SDS011;3844;53.360;9.738;2023-02-27T10:39:59;8.68;;;2.90;;
7605;SDS011;3844;53.360;9.738;2023-02-27T10:42:06;9.10;;;2.88;;
7605;SDS011;3844;53.360;9.738;2023-02-27T10:44:09;9.23;;;2.97;;
7605;SDS011;3844;53.360;9.738;2023-02-27T10:46:24;8.02;;;2.60;;
7605;SDS011;3844;53.360;9.738;2023-02-27T10:48:26;7.35;;;2.70;;
7605;SDS011;3844;53.360;9.738;2023-02-27T10:50:31;8.48;;;2.97;;
7605;SDS011;3844;53.360;9.738;2023-02-27T10:52:39;8.63;;;2.78;;
7605;SDS011;3844;53.360;9.738;2023-02-27T10:56:56;5.97;;;2.10;;
7605;SDS011;3844;53.360;9.738;2023-02-27T10:59:03;7.50;;;2.38;;
7605;SDS011;3844;53.360;9.738;2023-02-27T11:01:06;6.18;;;1.90;;
7605;SDS011;3844;53.360;9.738;2023-02-27T11:03:19;5.32;;;2.00;;
7605;SDS011;3844;53.360;9.738;2023-02-27T11:05:29;5.97;;;1.80;;
7605;SDS011;3844;53.360;9.738;2023-02-27T11:07:33;6.53;;;2.10;;
7605;SDS011;3844;53.360;9.738;2023-02-27T11:09:38;6.75;;;2.10;;
7605;SDS011;3844;53.360;9.738;2023-02-27T11:11:38;7.80;;;2.00;;
7605;SDS011;3844;53.360;9.738;2023-02-27T11:13:40;6.32;;;2.20;;
7605;SDS011;3844;53.360;9.738;2023-02-27T11:15:43;9.75;;;2.40;;
7605;SDS011;3844;53.360;9.738;2023-02-27T11:17:44;6.03;;;2.00;;
7605;SDS011;3844;53.360;9.738;2023-02-27T11:19:44;6.38;;;2.00;;
7605;SDS011;3844;53.360;9.738;2023-02-27T11:22:28;7.50;;;1.95;;
7605;SDS011;3844;53.360;9.738;2023-02-27T11:24:18;5.25;;;1.60;;
7605;SDS011;3844;53.360;9.738;2023-02-27T11:26:21;5.80;;;1.65;;
7605;SDS011;3844;53.360;9.738;2023-02-27T11:28:28;6.65;;;1.75;;
7605;SDS011;3844;53.360;9.738;2023-02-27T11:30:29;6.07;;;1.60;;
7605;SDS011;3844;53.360;9.738;2023-02-27T11:32:43;4.78;;;1.33;;
7605;SDS011;3844;53.360;9.738;2023-02-27T11:34:48;5.78;;;1.42;;
7605;SDS011;3844;53.360;9.738;2023-02-27T11:38:54;6.50;;;1.48;;
7605;SDS011;3844;53.360;9.738;2023-02-27T11:40:56;6.32;;;1.60;;
7605;SDS011;3844;53.360;9.738;2023-02-27T11:43:01;5.68;;;1.40;;
7605;SDS011;3844;53.360;9.738;2023-02-27T11:45:19;7.38;;;1.33;;
7605;SDS011;3844;53.360;9.738;2023-02-27T11:47:32;6.32;;;1.50;;
7605;SDS011;3844;53.360;9.738;2023-02-27T11:49:39;4.93;;;1.48;;
7605;SDS011;3844;53.360;9.738;2023-02-27T11:52:16;5.70;;;1.50;;
7605;SDS011;3844;53.360;9.738;2023-02-27T11:54:49;5.03;;;1.27;;
7605;SDS011;3844;53.360;9.738;2023-02-27T11:56:57;5.95;;;1.30;;
7605;SDS011;3844;53.360;9.738;2023-02-27T12:01:19;5.85;;;1.40;;
7605;SDS011;3844;53.360;9.738;2023-02-27T12:03:34;4.43;;;1.30;;
7605;SDS011;3844;53.360;9.738;2023-02-27T12:05:58;4.78;;;1.30;;
7605;SDS011;3844;53.360;9.738;2023-02-27T12:10:29;5.07;;;1.50;;
7605;SDS011;3844;53.360;9.738;2023-02-27T12:12:42;5.22;;;1.30;;
7605;SDS011;3844;53.360;9.738;2023-02-27T12:14:47;5.18;;;1.25;;
7605;SDS011;3844;53.360;9.738;2023-02-27T12:22:05;6.97;;;1.30;;
7605;SDS011;3844;53.360;9.738;2023-02-27T12:28:34;4.22;;;1.33;;
7605;SDS011;3844;53.360;9.738;2023-02-27T12:33:08;3.92;;;1.23;;
7605;SDS011;3844;53.360;9.738;2023-02-27T12:35:36;6.35;;;1.38;;
7605;SDS011;3844;53.360;9.738;2023-02-27T12:37:38;5.47;;;1.38;;
7605;SDS011;3844;53.360;9.738;2023-02-27T12:39:39;5.15;;;1.30;;
7605;SDS011;3844;53.360;9.738;2023-02-27T12:41:54;5.28;;;1.60;;
7605;SDS011;3844;53.360;9.738;2023-02-27T12:56:03;4.72;;;1.38;;
7605;SDS011;3844;53.360;9.738;2023-02-27T13:00:44;5.63;;;1.60;;
7605;SDS011;3844;53.360;9.738;2023-02-27T13:05:12;5.78;;;1.45;;
7605;SDS011;3844;53.360;9.738;2023-02-27T13:07:33;6.45;;;1.58;;
7605;SDS011;3844;53.360;9.738;2023-02-27T13:09:52;6.63;;;1.60;;
7605;SDS011;3844;53.360;9.738;2023-02-27T13:16:03;4.40;;;1.30;;
7605;SDS011;3844;53.360;9.738;2023-02-27T13:18:24;7.45;;;1.80;;
7605;SDS011;3844;53.360;9.738;2023-02-27T13:20:43;4.72;;;1.48;;
7605;SDS011;3844;53.360;9.738;2023-02-27T13:22:55;5.47;;;1.50;;
7605;SDS011;3844;53.360;9.738;2023-02-27T13:25:08;6.97;;;1.58;;
7605;SDS011;3844;53.360;9.738;2023-02-27T13:29:22;5.80;;;1.70;;
7605;SDS011;3844;53.360;9.738;2023-02-27T13:34:01;5.05;;;2.00;;
7605;SDS011;3844;53.360;9.738;2023-02-27T13:38:42;5.70;;;1.70;;
7605;SDS011;3844;53.360;9.738;2023-02-27T13:40:50;4.88;;;1.50;;
7605;SDS011;3844;53.360;9.738;2023-02-27T13:42:55;6.65;;;1.80;;
7605;SDS011;3844;53.360;9.738;2023-02-27T13:45:04;5.00;;;1.60;;
7605;SDS011;3844;53.360;9.738;2023-02-27T13:49:32;5.95;;;1.70;;
7605;SDS011;3844;53.360;9.738;2023-02-27T13:51:45;7.03;;;1.80;;
7605;SDS011;3844;53.360;9.738;2023-02-27T13:53:47;5.28;;;1.48;;
7605;SDS011;3844;53.360;9.738;2023-02-27T13:55:48;4.60;;;1.52;;
7605;SDS011;3844;53.360;9.738;2023-02-27T13:58:14;7.22;;;1.60;;
7605;SDS011;3844;53.360;9.738;2023-02-27T14:00:21;5.45;;;1.70;;
7605;SDS011;3844;53.360;9.738;2023-02-27T14:04:31;4.53;;;1.40;;
7605;SDS011;3844;53.360;9.738;2023-02-27T14:06:49;5.28;;;1.50;;
7605;SDS011;3844;53.360;9.738;2023-02-27T14:08:56;5.20;;;1.85;;
7605;SDS011;3844;53.360;9.738;2023-02-27T14:14:27;4.88;;;1.42;;
7605;SDS011;3844;53.360;9.738;2023-02-27T14:15:52;6.35;;;1.48;;
7605;SDS011;3844;53.360;9.738;2023-02-27T14:17:56;7.03;;;1.50;;
7605;SDS011;3844;53.360;9.738;2023-02-27T14:19:58;6.13;;;1.40;;
7605;SDS011;3844;53.360;9.738;2023-02-27T14:22:00;5.00;;;1.25;;
7605;SDS011;3844;53.360;9.738;2023-02-27T14:24:11;3.65;;;1.17;;
7605;SDS011;3844;53.360;9.738;2023-02-27T14:26:17;4.13;;;1.38;;
7605;SDS011;3844;53.360;9.738;2023-02-27T14:28:43;5.53;;;1.30;;
7605;SDS011;3844;53.360;9.738;2023-02-27T14:30:58;4.50;;;1.33;;
7605;SDS011;3844;53.360;9.738;2023-02-27T14:33:19;3.55;;;1.15;;
7605;SDS011;3844;53.360;9.738;2023-02-27T14:35:26;5.10;;;1.27;;
7605;SDS011;3844;53.360;9.738;2023-02-27T14:37:29;5.55;;;1.30;;
7605;SDS011;3844;53.360;9.738;2023-02-27T14:39:32;4.32;;;1.25;;
7605;SDS011;3844;53.360;9.738;2023-02-27T14:44:20;5.63;;;1.45;;
7605;SDS011;3844;53.360;9.738;2023-02-27T14:48:31;5.40;;;1.35;;
7605;SDS011;3844;53.360;9.738;2023-02-27T14:50:32;5.75;;;1.50;;
7605;SDS011;3844;53.360;9.738;2023-02-27T14:52:40;5.60;;;1.45;;
7605;SDS011;3844;53.360;9.738;2023-02-27T14:54:41;4.63;;;1.50;;
7605;SDS011;3844;53.360;9.738;2023-02-27T15:01:23;3.67;;;1.30;;
7605;SDS011;3844;53.360;9.738;2023-02-27T15:05:35;4.57;;;1.40;;
7605;SDS011;3844;53.360;9.738;2023-02-27T15:07:37;4.60;;;1.30;;
7605;SDS011;3844;53.360;9.738;2023-02-27T15:09:39;4.35;;;1.25;;
7605;SDS011;3844;53.360;9.738;2023-02-27T15:11:43;5.63;;;1.42;;
7605;SDS011;3844;53.360;9.738;2023-02-27T15:13:44;5.13;;;1.40;;
7605;SDS011;3844;53.360;9.738;2023-02-27T15:15:47;5.43;;;1.27;;
7605;SDS011;3844;53.360;9.738;2023-02-27T15:17:50;5.10;;;1.40;;
7605;SDS011;3844;53.360;9.738;2023-02-27T15:19:56;3.72;;;1.25;;
7605;SDS011;3844;53.360;9.738;2023-02-27T15:21:59;6.18;;;1.70;;
7605;SDS011;3844;53.360;9.738;2023-02-27T15:24:02;5.47;;;1.52;;
7605;SDS011;3844;53.360;9.738;2023-02-27T15:26:05;4.70;;;1.27;;
7605;SDS011;3844;53.360;9.738;2023-02-27T15:28:07;5.80;;;1.40;;